Список аэропортов
Фактическая погода:

25 июня, 11:00
Температура: +27°C (+27.0*)
Ветер: западный 2 м/с
Давление: *761 мм
неб. облачность
930 м
Время (МСК)Темп. СВетерВлажностьДавлениеОблачностьОсадки
09:00+25С, 2 м/с64%1013 гПаясно
10:00+26СЗ, 3 м/с53%1014 гПаясно
11:00+26СЗ, 3 м/с51%1014 гПамалооблачно
12:00+27З, 3 м/с52%1014 гПамалооблачно
13:00+27З, 4 м/с54%1014 гПамалооблачно
14:00+27З, 5 м/с53%1014 гПамалооблачно
15:00+27З, 5 м/с51%1014 гПамалооблачно
16:00+26З, 5 м/с52%1014 гПамалооблачно
17:00+26З, 5 м/с52%1015 гПамалооблачно
18:00+25З, 4 м/с52%1015 гПаясно
19:00+24З, 4 м/с56%1015 гПаясно
20:00+23ЮЗ, 3 м/с65%1015 гПаясно
21:00+21З, 2 м/с77%1016 гПаясно
22:00+20З, 1 м/с85%1016 гПаясно
23:00+19З, 1 м/с88%1016 гПаясно
26 июня
00:00+19СЗ, 1 м/с88%1016 гПаясно
01:00+19С, 2 м/с90%1016 гПаясно
02:00+18С, 1 м/с92%1016 гПаясно
03:00+18В, 2 м/с86%1016 гПаясно
04:00+17В, 2 м/с85%1016 гПаясно
05:00+16В, 2 м/с89%1016 гПаясно
06:00+17В, 2 м/с90%1016 гПаясно
07:00+20В, 2 м/с80%1015 гПаясно
08:00+24В, 2 м/с61%1015 гПаясно
09:00+26В, 3 м/с52%1015 гПаясно
10:00+27В, 1 м/с49%1015 гПаясно
11:00+27З, 1 м/с47%1015 гПаясно
12:00+28З, 3 м/с47%1015 гПамалооблачно
13:00+28З, 4 м/с47%1015 гПамалооблачно
14:00+28З, 5 м/с46%1014 гПамалооблачно
15:00+28З, 4 м/с46%1014 гПамалооблачно
16:00+28СЗ, 5 м/с46%1013 гПамалооблачно
17:00+28СЗ, 5 м/с48%1013 гПаясно
18:00+27С, 4 м/с49%1012 гПаясно
19:00+26С, 4 м/с52%1012 гПаясно
20:00+25С, 4 м/с57%1012 гПаясно
21:00+23С, 3 м/с65%1012 гПаясно
22:00+22С, 3 м/с71%1012 гПаясно
23:00+21СВ, 3 м/с80%1011 гПаясно
27 июня
00:00+20СВ, 2 м/с88%1011 гПаясно
01:00+19СВ, 2 м/с94%1011 гПаясно
02:00+19СВ, 2 м/с96%1011 гПамалооблачно
03:00+18СВ, 2 м/с95%1010 гПамалооблачно
04:00+18СВ, 2 м/с93%1010 гПамалооблачно
05:00+18СВ, 3 м/с92%1011 гПамалооблачно
06:00+18СВ, 2 м/с89%1011 гПаясно
07:00+21СВ, 2 м/с80%1010 гПаясно
08:00+23СВ, 1 м/с71%1010 гПаясно
09:00+26С, 1 м/с63%1010 гПаясно